首页
METAR-TAF:

METAR-TAF

机场 :

恰斯拉夫, 捷克共和国

纬度: 49-56-23N, 经度: 15-22-55E, 海拔: 242米

当前天气观测

该预报发布于26分钟前的01:00 UTC
风速3节,风向西南
温度 14°C
湿度 94%
气压 1019 hPa
能见度10公里或以上
1500米以下无云,无积雨云

METAR: LKCV 180100Z 23003KT CAVOK 14/13 Q1019 NOSIG RMK BLU BLU

时间: 03:26 (01:26 UTC)

预报

该预报发布于2小时和26分钟前的23:00 UTC
预报有效从18日的 00点(UTC)到 19日的 00点(UTC)
风速2节,风向多变
能见度10公里或以上
1500米以下无云,无积雨云
短暂存在
从 18日的 08点(UTC)到 18日的 11点(UTC)
散云层高于3500英尺
成为
从 18日的 07点(UTC)到 18日的 10点(UTC)
风速6节,风向
短暂存在
从 18日的 12点(UTC)到 18日的 16点(UTC)
风速11节,风向东南

TAF: LKCV 172300Z 1800/1900 VRB02KT CAVOK TEMPO 1808/1811 SCT035 BECMG 1807/1810 10006KT TEMPO 1812/1816 14011KT

超过4000个机场的气象观测和天气预报(METAR&TAF报告)。

可查询的气象台以黄色和红色小点在地图上表示。

将鼠标移到小点上方,可查看气象台名称。

然后点击查看天气观测和预报。

如需切换地图:点击带黑十字的绿色按钮放大地图;点击带横线的绿色按钮缩小地图;或者点击绿色箭头查看邻近地区的地图。


METAR-TAF: